Time,TemperatureF,DewpointF,PressureIn,WindDirection,WindDirectionDegrees,WindSpeedMPH,WindSpeedGustMPH,Humidity,HourlyPrecipIn,Conditions,Clouds,dailyrainin,SoftwareType,DateUTC
2013-08-06 00:01:00,80.4,74.8,29.94,ENE,68,0.0,2.0,83,0.00,,,0.00,meteohub,2013-08-06 04:01:00,
2013-08-06 00:02:00,80.4,74.8,29.94,ENE,68,0.0,2.0,83,0.00,,,0.00,meteohub,2013-08-06 04:02:00,
2013-08-06 00:07:00,80.4,74.8,29.94,ENE,68,0.0,2.0,83,0.00,,,0.00,meteohub,2013-08-06 04:07:00,
2013-08-06 00:12:00,80.2,74.7,29.94,ENE,68,0.0,1.0,83,0.00,,,0.00,meteohub,2013-08-06 04:12:00,
2013-08-06 00:17:00,80.1,74.5,29.93,ENE,68,0.0,1.0,83,0.00,,,0.00,meteohub,2013-08-06 04:17:00,
2013-08-06 00:22:00,80.1,74.8,29.94,ENE,68,0.0,1.0,84,0.00,,,0.00,meteohub,2013-08-06 04:22:00,
2013-08-06 00:27:00,79.9,74.7,29.94,ENE,68,0.0,1.0,84,0.00,,,0.00,meteohub,2013-08-06 04:27:00,
2013-08-06 00:32:00,79.7,74.5,29.94,ENE,68,0.0,1.0,84,0.00,,,0.00,meteohub,2013-08-06 04:32:00,
2013-08-06 00:37:00,79.5,74.3,29.93,ENE,68,0.0,1.0,84,0.00,,,0.00,meteohub,2013-08-06 04:37:00,
2013-08-06 00:42:00,79.3,74.1,29.93,ENE,68,0.0,1.0,84,0.00,,,0.00,meteohub,2013-08-06 04:42:00,
2013-08-06 00:47:00,79.3,74.1,29.93,ENE,68,0.0,2.0,84,0.00,,,0.00,meteohub,2013-08-06 04:47:00,
2013-08-06 00:52:00,79.2,73.9,29.93,ENE,68,0.0,2.0,84,0.00,,,0.00,meteohub,2013-08-06 04:52:00,
2013-08-06 00:57:00,79.0,73.8,29.93,ENE,66,0.0,2.0,84,0.00,,,0.00,meteohub,2013-08-06 04:57:00,
2013-08-06 01:02:00,79.0,73.8,29.93,ENE,68,0.0,2.0,84,0.00,,,0.00,meteohub,2013-08-06 05:02:00,
2013-08-06 01:07:00,78.6,73.4,29.93,SW,226,0.0,2.0,84,0.00,,,0.00,meteohub,2013-08-06 05:07:00,
2013-08-06 01:12:00,78.4,73.2,29.93,SW,226,0.0,2.0,84,0.00,,,0.00,meteohub,2013-08-06 05:12:00,
2013-08-06 01:17:00,78.3,73.0,29.93,SW,219,0.0,1.0,84,0.00,,,0.00,meteohub,2013-08-06 05:17:00,
2013-08-06 01:22:00,78.1,72.9,29.92,SW,217,0.0,2.0,84,0.00,,,0.00,meteohub,2013-08-06 05:22:00,
2013-08-06 01:27:00,77.9,73.0,29.92,SW,217,0.0,3.0,85,0.00,,,0.00,meteohub,2013-08-06 05:27:00,
2013-08-06 01:32:00,77.7,72.9,29.92,SW,217,0.0,3.0,85,0.00,,,0.00,meteohub,2013-08-06 05:32:00,
2013-08-06 01:37:00,77.5,72.7,29.92,SW,217,0.0,1.0,85,0.00,,,0.00,meteohub,2013-08-06 05:37:00,
2013-08-06 01:42:00,77.5,72.7,29.91,SW,221,0.0,1.0,85,0.00,,,0.00,meteohub,2013-08-06 05:42:00,
2013-08-06 01:47:00,77.5,72.7,29.91,SW,222,0.0,1.0,85,0.00,,,0.00,meteohub,2013-08-06 05:47:00,
2013-08-06 01:52:00,77.4,72.5,29.91,SW,222,0.0,1.0,85,0.00,,,0.00,meteohub,2013-08-06 05:52:00,
2013-08-06 01:57:00,77.4,72.5,29.90,SW,221,0.0,0.0,85,0.00,,,0.00,meteohub,2013-08-06 05:57:00,
2013-08-06 02:02:00,77.2,72.3,29.90,SW,222,0.0,0.0,85,0.00,,,0.00,meteohub,2013-08-06 06:02:00,
2013-08-06 02:07:00,77.2,72.3,29.90,SW,222,0.0,1.0,85,0.00,,,0.00,meteohub,2013-08-06 06:07:00,
2013-08-06 02:12:00,77.2,72.3,29.89,SW,221,0.0,1.0,85,0.00,,,0.00,meteohub,2013-08-06 06:12:00,
2013-08-06 02:17:00,77.0,72.1,29.89,SW,222,0.0,0.0,85,0.00,,,0.00,meteohub,2013-08-06 06:17:00,
2013-08-06 02:22:00,77.0,72.1,29.89,SW,222,0.0,0.0,85,0.00,,,0.00,meteohub,2013-08-06 06:22:00,
2013-08-06 02:27:00,76.8,72.0,29.89,SW,222,0.0,1.0,85,0.00,,,0.00,meteohub,2013-08-06 06:27:00,
2013-08-06 02:32:00,76.8,72.0,29.89,SW,222,0.0,1.0,85,0.00,,,0.00,meteohub,2013-08-06 06:32:00,
2013-08-06 02:37:00,76.6,71.8,29.88,SW,221,0.0,1.0,85,0.00,,,0.00,meteohub,2013-08-06 06:37:00,
2013-08-06 02:42:00,76.6,71.8,29.88,SW,221,0.0,0.0,85,0.00,,,0.00,meteohub,2013-08-06 06:42:00,
2013-08-06 02:47:00,76.6,71.8,29.88,SW,222,0.0,0.0,85,0.00,,,0.00,meteohub,2013-08-06 06:47:00,
2013-08-06 02:52:00,76.6,71.8,29.88,SW,222,0.0,0.0,85,0.00,,,0.00,meteohub,2013-08-06 06:52:00,
2013-08-06 02:57:00,76.5,71.6,29.88,SW,222,0.0,0.0,85,0.00,,,0.00,meteohub,2013-08-06 06:57:00,
2013-08-06 03:02:00,76.5,71.6,29.88,SW,221,0.0,0.0,85,0.00,,,0.00,meteohub,2013-08-06 07:02:00,
2013-08-06 03:07:00,76.5,71.6,29.88,SW,222,0.0,1.0,85,0.00,,,0.00,meteohub,2013-08-06 07:07:00,
2013-08-06 03:12:00,76.5,71.6,29.87,SW,222,0.0,1.0,85,0.00,,,0.00,meteohub,2013-08-06 07:12:00,
2013-08-06 03:17:00,76.5,71.6,29.87,SW,222,0.0,1.0,85,0.00,,,0.00,meteohub,2013-08-06 07:17:00,
2013-08-06 03:22:00,76.5,71.6,29.87,SW,222,0.0,0.0,85,0.00,,,0.00,meteohub,2013-08-06 07:22:00,
2013-08-06 03:27:00,76.5,71.6,29.87,SW,222,0.0,0.0,85,0.00,,,0.00,meteohub,2013-08-06 07:27:00,
2013-08-06 03:32:00,76.5,71.6,29.87,SW,222,0.0,0.0,85,0.00,,,0.00,meteohub,2013-08-06 07:32:00,
2013-08-06 03:37:00,76.5,71.6,29.87,SW,222,0.0,0.0,85,0.00,,,0.00,meteohub,2013-08-06 07:37:00,
2013-08-06 03:42:00,76.5,71.6,29.87,SW,222,0.0,0.0,85,0.00,,,0.00,meteohub,2013-08-06 07:42:00,
2013-08-06 03:47:00,76.3,71.4,29.87,SW,222,0.0,0.0,85,0.00,,,0.00,meteohub,2013-08-06 07:47:00,
2013-08-06 03:52:00,76.3,71.4,29.86,SW,222,0.0,0.0,85,0.00,,,0.00,meteohub,2013-08-06 07:52:00,
2013-08-06 03:57:00,76.3,71.4,29.87,SW,222,0.0,0.0,85,0.00,,,0.00,meteohub,2013-08-06 07:57:00,
2013-08-06 04:02:00,76.3,71.4,29.87,SW,222,0.0,0.0,85,0.00,,,0.00,meteohub,2013-08-06 08:02:00,
2013-08-06 04:07:00,76.3,71.4,29.87,SW,222,0.0,0.0,85,0.00,,,0.00,meteohub,2013-08-06 08:07:00,
2013-08-06 04:12:00,76.1,71.2,29.86,SW,221,0.0,0.0,85,0.00,,,0.00,meteohub,2013-08-06 08:12:00,
2013-08-06 04:17:00,76.1,71.2,29.87,SW,221,0.0,0.0,85,0.00,,,0.00,meteohub,2013-08-06 08:17:00,
2013-08-06 04:21:00,75.9,71.1,29.86,SW,222,0.0,0.0,85,0.00,,,0.00,meteohub,2013-08-06 08:21:00,
2013-08-06 04:26:00,75.9,71.1,29.86,SW,222,0.0,0.0,85,0.00,,,0.00,meteohub,2013-08-06 08:26:00,
2013-08-06 04:32:00,75.9,71.1,29.86,SW,222,0.0,0.0,85,0.00,,,0.00,meteohub,2013-08-06 08:32:00,
2013-08-06 04:37:00,75.7,71.2,29.86,SW,222,0.0,0.0,86,0.00,,,0.00,meteohub,2013-08-06 08:37:00,
2013-08-06 04:42:00,75.7,71.2,29.86,SW,222,0.0,0.0,86,0.00,,,0.00,meteohub,2013-08-06 08:42:00,
2013-08-06 04:47:00,75.7,71.2,29.87,SW,222,0.0,0.0,86,0.00,,,0.00,meteohub,2013-08-06 08:47:00,
2013-08-06 04:52:00,75.7,71.2,29.86,SW,222,0.0,0.0,86,0.00,,,0.00,meteohub,2013-08-06 08:52:00,
2013-08-06 04:57:00,75.7,71.2,29.86,SW,222,0.0,0.0,86,0.00,,,0.00,meteohub,2013-08-06 08:57:00,
2013-08-06 05:02:00,75.7,71.2,29.86,SW,222,0.0,0.0,86,0.00,,,0.00,meteohub,2013-08-06 09:02:00,
2013-08-06 05:07:00,75.6,71.1,29.86,SW,222,0.0,0.0,86,0.00,,,0.00,meteohub,2013-08-06 09:07:00,
2013-08-06 05:12:00,75.6,71.1,29.86,SW,222,0.0,0.0,86,0.00,,,0.00,meteohub,2013-08-06 09:12:00,
2013-08-06 05:17:00,75.6,71.1,29.87,SW,222,0.0,1.0,86,0.00,,,0.00,meteohub,2013-08-06 09:17:00,
2013-08-06 05:22:00,75.6,71.1,29.87,SW,222,0.0,1.0,86,0.00,,,0.00,meteohub,2013-08-06 09:22:00,
2013-08-06 05:27:00,75.4,70.9,29.87,SW,222,0.0,0.0,86,0.00,,,0.00,meteohub,2013-08-06 09:27:00,
2013-08-06 05:32:00,75.4,70.9,29.87,SW,222,0.0,0.0,86,0.00,,,0.00,meteohub,2013-08-06 09:32:00,
2013-08-06 05:37:00,75.4,70.9,29.88,SW,221,0.0,0.0,86,0.00,,,0.00,meteohub,2013-08-06 09:37:00,
2013-08-06 05:42:00,75.4,70.9,29.88,SW,222,0.0,0.0,86,0.00,,,0.00,meteohub,2013-08-06 09:42:00,
2013-08-06 05:47:00,75.6,71.1,29.88,SW,221,0.0,0.0,86,0.00,,,0.00,meteohub,2013-08-06 09:47:00,
2013-08-06 05:52:00,75.6,71.1,29.88,SW,221,0.0,1.0,86,0.00,,,0.00,meteohub,2013-08-06 09:52:00,
2013-08-06 05:57:00,75.6,71.1,29.88,SW,222,0.0,1.0,86,0.00,,,0.00,meteohub,2013-08-06 09:57:00,
2013-08-06 06:02:00,75.4,70.9,29.88,SW,222,0.0,1.0,86,0.00,,,0.00,meteohub,2013-08-06 10:02:00,
2013-08-06 06:07:00,75.4,70.9,29.88,SW,222,0.0,1.0,86,0.00,,,0.00,meteohub,2013-08-06 10:07:00,
2013-08-06 06:12:00,75.4,70.9,29.88,SW,222,0.0,1.0,86,0.00,,,0.00,meteohub,2013-08-06 10:12:00,
2013-08-06 06:17:00,75.4,70.9,29.88,SW,221,0.0,1.0,86,0.00,,,0.00,meteohub,2013-08-06 10:17:00,
2013-08-06 06:22:00,75.4,70.9,29.88,SW,221,1.0,1.0,86,0.00,,,0.00,meteohub,2013-08-06 10:22:00,
2013-08-06 06:27:00,75.4,70.9,29.89,SW,222,0.0,1.0,86,0.00,,,0.00,meteohub,2013-08-06 10:27:00,
2013-08-06 06:32:00,75.2,70.7,29.89,SW,222,0.0,1.0,86,0.00,,,0.00,meteohub,2013-08-06 10:32:00,
2013-08-06 06:37:00,75.2,70.7,29.89,SW,222,0.0,1.0,86,0.00,,,0.00,meteohub,2013-08-06 10:37:00,
2013-08-06 06:42:00,75.2,70.7,29.89,SW,222,0.0,0.0,86,0.00,,,0.00,meteohub,2013-08-06 10:42:00,
2013-08-06 06:47:00,75.2,70.7,29.89,SW,222,0.0,0.0,86,0.00,,,0.00,meteohub,2013-08-06 10:47:00,
2013-08-06 06:52:00,75.0,70.5,29.89,SW,222,0.0,0.0,86,0.00,,,0.00,meteohub,2013-08-06 10:52:00,
2013-08-06 06:57:00,75.2,70.7,29.89,SW,222,0.0,0.0,86,0.00,,,0.00,meteohub,2013-08-06 10:57:00,
2013-08-06 07:02:00,75.2,70.7,29.89,SW,222,0.0,0.0,86,0.00,,,0.00,meteohub,2013-08-06 11:02:00,
2013-08-06 07:07:00,75.2,70.7,29.90,SW,222,0.0,0.0,86,0.00,,,0.00,meteohub,2013-08-06 11:07:00,
2013-08-06 07:12:00,75.2,70.7,29.90,SW,222,0.0,0.0,86,0.00,,,0.00,meteohub,2013-08-06 11:12:00,
2013-08-06 07:17:00,75.2,70.7,29.90,SW,222,0.0,0.0,86,0.00,,,0.00,meteohub,2013-08-06 11:17:00,
2013-08-06 07:22:00,75.2,70.7,29.90,SW,222,0.0,0.0,86,0.00,,,0.00,meteohub,2013-08-06 11:22:00,
2013-08-06 07:27:00,75.4,70.9,29.90,SW,222,0.0,0.0,86,0.00,,,0.00,meteohub,2013-08-06 11:27:00,
2013-08-06 07:32:00,75.4,70.9,29.90,SW,222,0.0,0.0,86,0.00,,,0.00,meteohub,2013-08-06 11:32:00,
2013-08-06 07:37:00,75.6,71.1,29.91,SW,222,0.0,0.0,86,0.00,,,0.00,meteohub,2013-08-06 11:37:00,
2013-08-06 07:42:00,75.6,71.1,29.91,SW,222,0.0,0.0,86,0.00,,,0.00,meteohub,2013-08-06 11:42:00,
2013-08-06 07:47:00,75.6,71.1,29.91,SW,221,0.0,0.0,86,0.00,,,0.00,meteohub,2013-08-06 11:47:00,
2013-08-06 07:52:00,75.7,71.2,29.91,SW,222,0.0,0.0,86,0.00,,,0.00,meteohub,2013-08-06 11:52:00,
2013-08-06 07:57:00,75.9,71.4,29.91,SW,222,0.0,0.0,86,0.00,,,0.00,meteohub,2013-08-06 11:57:00,
2013-08-06 08:02:00,75.9,71.4,29.91,SW,222,0.0,0.0,86,0.00,,,0.00,meteohub,2013-08-06 12:02:00,
2013-08-06 08:07:00,76.3,71.8,29.91,SW,222,0.0,0.0,86,0.00,,,0.00,meteohub,2013-08-06 12:07:00,
2013-08-06 08:12:00,76.5,72.0,29.91,SW,222,0.0,0.0,86,0.00,,,0.00,meteohub,2013-08-06 12:12:00,
2013-08-06 08:17:00,76.6,72.1,29.91,SW,222,0.0,0.0,86,0.00,,,0.00,meteohub,2013-08-06 12:17:00,
2013-08-06 08:22:00,77.0,72.5,29.91,SE,134,0.0,1.0,86,0.00,,,0.00,meteohub,2013-08-06 12:22:00,
2013-08-06 08:27:00,77.2,72.7,29.91,SE,134,0.0,1.0,86,0.00,,,0.00,meteohub,2013-08-06 12:27:00,
2013-08-06 08:32:00,77.5,73.0,29.91,SE,134,0.0,1.0,86,0.00,,,0.00,meteohub,2013-08-06 12:32:00,
2013-08-06 08:37:00,77.7,73.2,29.91,SE,134,0.0,1.0,86,0.00,,,0.00,meteohub,2013-08-06 12:37:00,
2013-08-06 08:42:00,78.1,73.6,29.91,SE,134,0.0,1.0,86,0.00,,,0.00,meteohub,2013-08-06 12:42:00,
2013-08-06 08:47:00,78.3,73.4,29.91,SE,134,0.0,1.0,85,0.00,,,0.00,meteohub,2013-08-06 12:47:00,
2013-08-06 08:52:00,78.4,73.6,29.91,SE,134,0.0,1.0,85,0.00,,,0.00,meteohub,2013-08-06 12:52:00,
2013-08-06 08:57:00,78.6,73.8,29.92,SE,134,0.0,1.0,85,0.00,,,0.00,meteohub,2013-08-06 12:57:00,
2013-08-06 09:02:00,79.0,74.1,29.92,SE,134,1.0,1.0,85,0.00,,,0.00,meteohub,2013-08-06 13:02:00,
2013-08-06 09:07:00,79.2,74.3,29.92,SE,134,0.0,1.0,85,0.00,,,0.00,meteohub,2013-08-06 13:07:00,
2013-08-06 09:12:00,79.5,74.3,29.92,SE,134,0.0,1.0,84,0.00,,,0.00,meteohub,2013-08-06 13:12:00,
2013-08-06 09:17:00,80.1,74.8,29.92,SE,134,0.0,1.0,84,0.00,,,0.00,meteohub,2013-08-06 13:17:00,
2013-08-06 09:22:00,80.8,75.2,29.92,SE,141,0.0,1.0,83,0.00,,,0.00,meteohub,2013-08-06 13:22:00,
2013-08-06 09:27:00,81.0,75.4,29.93,SE,134,0.0,1.0,83,0.00,,,0.00,meteohub,2013-08-06 13:27:00,
2013-08-06 09:32:00,81.1,75.2,29.93,SE,134,0.0,1.0,82,0.00,,,0.00,meteohub,2013-08-06 13:32:00,
2013-08-06 09:37:00,81.3,75.4,29.93,SE,134,0.0,2.0,82,0.00,,,0.00,meteohub,2013-08-06 13:37:00,
2013-08-06 09:42:00,81.7,75.2,29.93,SE,134,0.0,2.0,81,0.00,,,0.00,meteohub,2013-08-06 13:42:00,
2013-08-06 09:47:00,82.0,75.6,29.93,SE,134,1.0,2.0,81,0.00,,,0.00,meteohub,2013-08-06 13:47:00,
2013-08-06 09:52:00,82.2,75.7,29.93,SE,134,0.0,1.0,81,0.00,,,0.00,meteohub,2013-08-06 13:52:00,
2013-08-06 09:57:00,82.4,75.9,29.94,SE,134,1.0,1.0,81,0.00,,,0.00,meteohub,2013-08-06 13:57:00,
2013-08-06 10:02:00,82.6,75.7,29.94,SE,134,0.0,2.0,80,0.00,,,0.00,meteohub,2013-08-06 14:02:00,
2013-08-06 10:07:00,82.8,75.9,29.94,SE,134,1.0,2.0,80,0.00,,,0.00,meteohub,2013-08-06 14:07:00,
2013-08-06 10:12:00,82.9,76.1,29.94,SSE,149,0.0,2.0,80,0.00,,,0.00,meteohub,2013-08-06 14:12:00,
2013-08-06 10:17:00,83.1,76.3,29.94,SE,134,0.0,2.0,80,0.00,,,0.00,meteohub,2013-08-06 14:17:00,
2013-08-06 10:22:00,83.3,76.1,29.94,ENE,68,1.0,2.0,79,0.00,,,0.00,meteohub,2013-08-06 14:22:00,
2013-08-06 10:27:00,83.5,76.3,29.95,ENE,60,1.0,2.0,79,0.00,,,0.00,meteohub,2013-08-06 14:27:00,
2013-08-06 10:32:00,83.8,76.6,29.94,ENE,63,0.0,2.0,79,0.00,,,0.00,meteohub,2013-08-06 14:32:00,
2013-08-06 10:37:00,83.8,76.3,29.95,West,281,0.0,2.0,78,0.00,,,0.00,meteohub,2013-08-06 14:37:00,
2013-08-06 10:42:00,84.0,76.5,29.95,ENE,68,0.0,2.0,78,0.00,,,0.00,meteohub,2013-08-06 14:42:00,
2013-08-06 10:47:00,84.0,76.5,29.95,ENE,66,1.0,3.0,78,0.00,,,0.00,meteohub,2013-08-06 14:47:00,
2013-08-06 10:52:00,84.4,76.5,29.95,ENE,68,1.0,3.0,77,0.00,,,0.00,meteohub,2013-08-06 14:52:00,
2013-08-06 10:57:00,84.7,76.6,29.94,ENE,68,0.0,3.0,77,0.00,,,0.00,meteohub,2013-08-06 14:57:00,
2013-08-06 11:02:00,85.1,77.0,29.94,NE,40,0.0,2.0,77,0.00,,,0.00,meteohub,2013-08-06 15:02:00,
2013-08-06 11:07:00,85.5,77.0,29.94,NE,49,0.0,2.0,76,0.00,,,0.00,meteohub,2013-08-06 15:07:00,
2013-08-06 11:12:00,85.8,77.4,29.95,ENE,68,0.0,1.0,76,0.00,,,0.00,meteohub,2013-08-06 15:12:00,
2013-08-06 11:17:00,86.2,77.7,29.95,ENE,68,0.0,3.0,76,0.00,,,0.00,meteohub,2013-08-06 15:17:00,
2013-08-06 11:22:00,86.2,77.4,29.94,ENE,60,2.0,3.0,75,0.00,,,0.00,meteohub,2013-08-06 15:22:00,
2013-08-06 11:27:00,86.4,77.5,29.94,ENE,68,0.0,3.0,75,0.00,,,0.00,meteohub,2013-08-06 15:27:00,
2013-08-06 11:32:00,86.7,77.4,29.94,ENE,68,1.0,3.0,74,0.00,,,0.00,meteohub,2013-08-06 15:32:00,
2013-08-06 11:37:00,86.7,77.4,29.94,ENE,68,0.0,3.0,74,0.00,,,0.00,meteohub,2013-08-06 15:37:00,
2013-08-06 11:42:00,87.1,77.4,29.94,NE,54,0.0,3.0,73,0.00,,,0.00,meteohub,2013-08-06 15:42:00,
2013-08-06 11:47:00,87.3,77.5,29.94,West,262,0.0,3.0,73,0.00,,,0.00,meteohub,2013-08-06 15:47:00,
2013-08-06 11:52:00,87.6,77.9,29.94,SSW,204,0.0,3.0,73,0.00,,,0.00,meteohub,2013-08-06 15:52:00,
2013-08-06 11:57:00,87.6,77.0,29.94,SE,134,0.0,2.0,71,0.00,,,0.00,meteohub,2013-08-06 15:57:00,
2013-08-06 12:02:00,87.4,77.4,29.94,ENE,60,1.0,2.0,72,0.00,,,0.00,meteohub,2013-08-06 16:02:00,
2013-08-06 12:07:00,87.8,77.7,29.94,ENE,68,0.0,2.0,72,0.00,,,0.00,meteohub,2013-08-06 16:07:00,
2013-08-06 12:12:00,88.0,77.9,29.94,ENE,58,0.0,3.0,72,0.00,,,0.00,meteohub,2013-08-06 16:12:00,
2013-08-06 12:17:00,88.3,77.4,29.94,WNW,285,0.0,3.0,70,0.00,,,0.00,meteohub,2013-08-06 16:17:00,
2013-08-06 12:22:00,88.3,77.7,29.94,NW,326,0.0,3.0,71,0.00,,,0.00,meteohub,2013-08-06 16:22:00,
2013-08-06 12:27:00,88.5,77.5,29.94,ENE,67,0.0,5.0,70,0.00,,,0.00,meteohub,2013-08-06 16:27:00,
2013-08-06 12:32:00,88.5,77.5,29.94,NW,326,0.0,5.0,70,0.00,,,0.00,meteohub,2013-08-06 16:32:00,
2013-08-06 12:37:00,88.3,77.7,29.94,ENE,68,0.0,2.0,71,0.00,,,0.00,meteohub,2013-08-06 16:37:00,
2013-08-06 12:42:00,88.2,77.9,29.93,ENE,64,0.0,2.0,72,0.00,,,0.00,meteohub,2013-08-06 16:42:00,
2013-08-06 12:47:00,88.3,77.7,29.93,NE,34,1.0,2.0,71,0.00,,,0.00,meteohub,2013-08-06 16:47:00,
2013-08-06 12:52:00,88.9,78.3,29.92,NNW,338,1.0,2.0,71,0.00,,,0.00,meteohub,2013-08-06 16:52:00,
2013-08-06 12:57:00,89.2,77.7,29.92,ENE,61,0.0,2.0,69,0.00,,,0.00,meteohub,2013-08-06 16:57:00,
2013-08-06 13:02:00,89.4,77.9,29.92,NNW,336,0.0,2.0,69,0.00,,,0.00,meteohub,2013-08-06 17:02:00,
2013-08-06 13:07:00,89.8,77.7,29.92,NE,37,0.0,3.0,68,0.00,,,0.00,meteohub,2013-08-06 17:07:00,
2013-08-06 13:12:00,90.0,77.9,29.92,ENE,68,1.0,3.0,68,0.00,,,0.00,meteohub,2013-08-06 17:12:00,
2013-08-06 13:17:00,90.5,78.4,29.91,ENE,66,0.0,3.0,68,0.00,,,0.00,meteohub,2013-08-06 17:17:00,
2013-08-06 13:22:00,90.7,78.6,29.91,ENE,68,0.0,3.0,68,0.00,,,0.00,meteohub,2013-08-06 17:22:00,
2013-08-06 13:27:00,90.9,79.3,29.91,SE,134,0.0,3.0,69,0.00,,,0.00,meteohub,2013-08-06 17:27:00,
2013-08-06 13:28:00,90.9,79.3,29.91,SE,134,0.0,3.0,69,0.00,,,0.00,meteohub,2013-08-06 17:28:00,
2013-08-06 13:33:00,90.9,77.9,29.91,SE,134,0.0,3.0,66,0.00,,,0.00,meteohub,2013-08-06 17:33:00,
2013-08-06 13:38:00,90.5,78.4,29.91,WSW,241,0.0,3.0,68,0.00,,,0.00,meteohub,2013-08-06 17:38:00,
2013-08-06 13:43:00,90.9,78.8,29.91,ENE,67,0.0,3.0,68,0.00,,,0.00,meteohub,2013-08-06 17:43:00,
2013-08-06 13:48:00,91.6,79.0,29.91,ENE,68,1.0,3.0,67,0.00,,,0.00,meteohub,2013-08-06 17:48:00,
2013-08-06 13:53:00,91.8,78.8,29.91,ENE,65,2.0,3.0,66,0.00,,,0.00,meteohub,2013-08-06 17:53:00,
2013-08-06 13:58:00,91.8,78.8,29.91,ENE,64,0.0,3.0,66,0.00,,,0.00,meteohub,2013-08-06 17:58:00,
2013-08-06 14:03:00,91.4,77.9,29.91,NW,313,1.0,3.0,65,0.00,,,0.00,meteohub,2013-08-06 18:03:00,
2013-08-06 14:08:00,91.8,78.8,29.91,SE,134,2.0,3.0,66,0.00,,,0.00,meteohub,2013-08-06 18:08:00,
2013-08-06 14:13:00,91.8,78.3,29.91,SE,134,2.0,3.0,65,0.00,,,0.00,meteohub,2013-08-06 18:13:00,
2013-08-06 14:18:00,91.4,77.9,29.91,NNW,347,0.0,2.0,65,0.00,,,0.00,meteohub,2013-08-06 18:18:00,
2013-08-06 14:23:00,91.0,78.6,29.91,WSW,242,0.0,2.0,67,0.00,,,0.00,meteohub,2013-08-06 18:23:00,
2013-08-06 14:28:00,90.7,79.5,29.91,SW,229,1.0,2.0,70,0.00,,,0.00,meteohub,2013-08-06 18:28:00,
2013-08-06 14:33:00,87.4,77.4,29.91,WNW,295,2.0,3.0,72,0.00,,,0.00,meteohub,2013-08-06 18:33:00,
2013-08-06 14:38:00,84.6,76.5,29.91,WSW,256,0.0,5.0,77,0.01,,,0.01,meteohub,2013-08-06 18:38:00,
2013-08-06 14:43:00,83.7,76.8,29.91,WNW,301,0.0,5.0,80,0.01,,,0.01,meteohub,2013-08-06 18:43:00,
2013-08-06 14:48:00,82.9,75.4,29.90,NW,307,1.0,5.0,78,0.01,,,0.01,meteohub,2013-08-06 18:48:00,
2013-08-06 14:53:00,82.4,75.6,29.90,NW,305,0.0,2.0,80,0.02,,,0.02,meteohub,2013-08-06 18:53:00,
2013-08-06 14:58:00,82.2,76.1,29.90,NW,305,0.0,2.0,82,0.02,,,0.02,meteohub,2013-08-06 18:58:00,
2013-08-06 15:03:00,82.4,76.6,29.89,NW,312,2.0,2.0,83,0.02,,,0.02,meteohub,2013-08-06 19:03:00,
2013-08-06 15:08:00,82.0,75.9,29.89,WSW,253,0.0,3.0,82,0.02,,,0.02,meteohub,2013-08-06 19:08:00,
2013-08-06 15:13:00,82.0,75.6,29.89,WSW,253,0.0,3.0,81,0.02,,,0.02,meteohub,2013-08-06 19:13:00,
2013-08-06 15:18:00,82.6,76.8,29.88,WSW,253,0.0,3.0,83,0.02,,,0.02,meteohub,2013-08-06 19:18:00,
2013-08-06 15:23:00,83.1,77.0,29.88,WSW,253,0.0,1.0,82,0.02,,,0.02,meteohub,2013-08-06 19:23:00,
2013-08-06 15:28:00,84.0,77.9,29.88,WSW,253,0.0,1.0,82,0.02,,,0.02,meteohub,2013-08-06 19:28:00,
2013-08-06 15:33:00,84.9,78.1,29.88,NW,305,1.0,1.0,80,0.02,,,0.02,meteohub,2013-08-06 19:33:00,
2013-08-06 15:38:00,85.6,78.8,29.88,NW,305,0.0,2.0,80,0.01,,,0.02,meteohub,2013-08-06 19:38:00,
2013-08-06 15:43:00,86.7,79.0,29.88,NW,306,0.0,2.0,78,0.01,,,0.02,meteohub,2013-08-06 19:43:00,
2013-08-06 15:48:00,88.0,79.9,29.88,WSW,251,0.0,2.0,77,0.01,,,0.02,meteohub,2013-08-06 19:48:00,
2013-08-06 15:53:00,89.1,80.1,29.87,SW,225,0.0,3.0,75,0.00,,,0.02,meteohub,2013-08-06 19:53:00,
2013-08-06 15:58:00,90.0,80.1,29.87,WSW,238,1.0,3.0,73,0.00,,,0.02,meteohub,2013-08-06 19:58:00,
2013-08-06 16:03:00,90.7,79.5,29.87,SE,134,0.0,3.0,70,0.00,,,0.02,meteohub,2013-08-06 20:03:00,
2013-08-06 16:08:00,91.0,78.6,29.87,SE,134,0.0,3.0,67,0.00,,,0.02,meteohub,2013-08-06 20:08:00,
2013-08-06 16:13:00,91.0,78.1,29.87,SE,134,2.0,3.0,66,0.00,,,0.02,meteohub,2013-08-06 20:13:00,
2013-08-06 16:18:00,89.6,76.3,29.87,SE,134,0.0,4.0,65,0.00,,,0.02,meteohub,2013-08-06 20:18:00,
2013-08-06 16:24:00,88.2,75.7,29.88,SE,134,1.0,4.0,67,0.00,,,0.02,meteohub,2013-08-06 20:24:00,
2013-08-06 16:29:00,86.9,74.7,29.88,SE,134,2.0,4.0,67,0.00,,,0.02,meteohub,2013-08-06 20:29:00,
2013-08-06 16:32:00,86.0,74.7,29.88,SE,134,1.0,4.0,69,0.00,,,0.02,meteohub,2013-08-06 20:32:00,
2013-08-06 16:37:00,84.9,75.2,29.89,NE,48,4.0,4.0,73,0.00,,,0.02,meteohub,2013-08-06 20:37:00,
2013-08-06 16:42:00,83.3,75.4,29.89,ENE,67,1.0,8.0,77,0.00,,,0.02,meteohub,2013-08-06 20:42:00,
2013-08-06 16:47:00,81.7,75.2,29.89,ENE,65,1.0,8.0,81,0.00,,,0.02,meteohub,2013-08-06 20:47:00,
2013-08-06 16:52:00,80.4,74.8,29.89,NE,39,2.0,8.0,83,0.00,,,0.02,meteohub,2013-08-06 20:52:00,
2013-08-06 16:57:00,79.7,74.5,29.90,NNW,335,1.0,9.0,84,0.00,,,0.02,meteohub,2013-08-06 20:57:00,
2013-08-06 17:02:00,79.2,73.9,29.90,NNW,345,1.0,9.0,84,0.02,,,0.04,meteohub,2013-08-06 21:02:00,
2013-08-06 17:07:00,79.0,73.8,29.90,ENE,58,0.0,4.0,84,0.05,,,0.07,meteohub,2013-08-06 21:07:00,
2013-08-06 17:12:00,78.4,73.6,29.89,ENE,57,0.0,3.0,85,0.06,,,0.08,meteohub,2013-08-06 21:12:00,
2013-08-06 17:17:00,78.6,73.8,29.88,ENE,58,0.0,2.0,85,0.07,,,0.09,meteohub,2013-08-06 21:17:00,
2013-08-06 17:22:00,78.6,73.8,29.88,ENE,58,0.0,1.0,85,0.08,,,0.10,meteohub,2013-08-06 21:22:00,
2013-08-06 17:27:00,78.6,73.8,29.88,ENE,57,0.0,1.0,85,0.09,,,0.11,meteohub,2013-08-06 21:27:00,
2013-08-06 17:32:00,78.3,73.4,29.88,North,6,0.0,1.0,85,0.09,,,0.11,meteohub,2013-08-06 21:32:00,
2013-08-06 17:37:00,78.1,73.2,29.89,North,349,0.0,4.0,85,0.09,,,0.11,meteohub,2013-08-06 21:37:00,
2013-08-06 17:42:00,77.9,73.0,29.89,NNE,25,1.0,4.0,85,0.09,,,0.11,meteohub,2013-08-06 21:42:00,
2013-08-06 17:47:00,78.1,73.2,29.90,NNE,25,0.0,2.0,85,0.09,,,0.11,meteohub,2013-08-06 21:47:00,
2013-08-06 17:52:00,78.3,73.4,29.89,NNE,25,0.0,1.0,85,0.09,,,0.11,meteohub,2013-08-06 21:52:00,
2013-08-06 17:57:00,78.4,73.6,29.89,NNE,25,0.0,1.0,85,0.08,,,0.11,meteohub,2013-08-06 21:57:00,
2013-08-06 18:02:00,78.4,73.6,29.89,NNE,25,0.0,1.0,85,0.05,,,0.11,meteohub,2013-08-06 22:02:00,
2013-08-06 18:07:00,78.4,73.6,29.90,NNE,25,0.0,1.0,85,0.03,,,0.11,meteohub,2013-08-06 22:07:00,
2013-08-06 18:12:00,78.4,73.6,29.90,NNE,25,0.0,0.0,85,0.03,,,0.11,meteohub,2013-08-06 22:12:00,
2013-08-06 18:17:00,78.3,73.4,29.90,NNE,25,0.0,0.0,85,0.02,,,0.11,meteohub,2013-08-06 22:17:00,
2013-08-06 18:22:00,78.3,73.4,29.90,NNE,25,0.0,1.0,85,0.01,,,0.11,meteohub,2013-08-06 22:22:00,
2013-08-06 18:27:00,78.3,73.4,29.91,WNW,292,0.0,2.0,85,0.00,,,0.11,meteohub,2013-08-06 22:27:00,
2013-08-06 18:32:00,78.4,73.6,29.91,WNW,283,1.0,2.0,85,0.00,,,0.11,meteohub,2013-08-06 22:32:00,
2013-08-06 18:37:00,78.4,73.6,29.90,NW,307,0.0,2.0,85,0.00,,,0.11,meteohub,2013-08-06 22:37:00,
2013-08-06 18:42:00,78.6,73.8,29.90,ENE,65,1.0,2.0,85,0.00,,,0.11,meteohub,2013-08-06 22:42:00,
2013-08-06 18:47:00,78.6,73.8,29.89,ENE,65,0.0,1.0,85,0.00,,,0.11,meteohub,2013-08-06 22:47:00,
2013-08-06 18:52:00,78.8,73.9,29.90,ENE,65,0.0,1.0,85,0.00,,,0.11,meteohub,2013-08-06 22:52:00,
2013-08-06 18:57:00,79.0,74.1,29.90,ENE,65,0.0,1.0,85,0.00,,,0.11,meteohub,2013-08-06 22:57:00,
2013-08-06 19:02:00,79.0,74.1,29.90,ENE,65,0.0,1.0,85,0.00,,,0.11,meteohub,2013-08-06 23:02:00,
2013-08-06 19:07:00,79.0,74.1,29.90,ENE,65,0.0,1.0,85,0.00,,,0.11,meteohub,2013-08-06 23:07:00,
2013-08-06 19:12:00,79.0,74.1,29.90,ENE,65,0.0,1.0,85,0.00,,,0.11,meteohub,2013-08-06 23:12:00,
2013-08-06 19:17:00,79.0,74.1,29.90,ENE,65,0.0,1.0,85,0.00,,,0.11,meteohub,2013-08-06 23:17:00,
2013-08-06 19:22:00,79.0,74.1,29.90,ENE,65,0.0,1.0,85,0.00,,,0.11,meteohub,2013-08-06 23:22:00,
2013-08-06 19:27:00,79.2,74.3,29.90,ENE,65,0.0,1.0,85,0.00,,,0.11,meteohub,2013-08-06 23:27:00,
2013-08-06 19:32:00,79.2,74.3,29.90,ENE,65,0.0,0.0,85,0.00,,,0.11,meteohub,2013-08-06 23:32:00,
2013-08-06 19:37:00,79.2,74.3,29.90,ENE,65,0.0,0.0,85,0.00,,,0.11,meteohub,2013-08-06 23:37:00,
2013-08-06 19:42:00,79.2,74.3,29.90,ENE,65,0.0,0.0,85,0.00,,,0.11,meteohub,2013-08-06 23:42:00,
2013-08-06 19:47:00,79.2,74.3,29.90,ENE,65,0.0,0.0,85,0.00,,,0.11,meteohub,2013-08-06 23:47:00,
2013-08-06 19:52:00,79.2,74.3,29.90,ENE,65,0.0,0.0,85,0.00,,,0.11,meteohub,2013-08-06 23:52:00,
2013-08-06 19:58:00,79.2,74.3,29.91,ENE,65,0.0,0.0,85,0.00,,,0.11,meteohub,2013-08-06 23:58:00,
2013-08-06 20:03:00,79.2,74.3,29.91,ENE,65,0.0,0.0,85,0.00,,,0.11,meteohub,2013-08-07 00:03:00,
2013-08-06 20:08:00,79.0,74.1,29.91,ENE,65,0.0,0.0,85,0.00,,,0.11,meteohub,2013-08-07 00:08:00,
2013-08-06 20:13:00,79.0,74.1,29.91,ENE,65,0.0,0.0,85,0.00,,,0.11,meteohub,2013-08-07 00:13:00,
2013-08-06 20:18:00,79.0,74.1,29.91,ENE,65,0.0,0.0,85,0.00,,,0.11,meteohub,2013-08-07 00:18:00,
2013-08-06 20:23:00,79.0,74.1,29.92,ENE,65,0.0,0.0,85,0.00,,,0.11,meteohub,2013-08-07 00:23:00,
2013-08-06 20:28:00,79.0,74.1,29.93,ENE,65,0.0,1.0,85,0.00,,,0.11,meteohub,2013-08-07 00:28:00,
2013-08-06 20:33:00,79.0,74.1,29.93,ENE,65,0.0,1.0,85,0.00,,,0.11,meteohub,2013-08-07 00:33:00,
2013-08-06 20:38:00,79.0,74.1,29.93,ENE,65,0.0,1.0,85,0.00,,,0.11,meteohub,2013-08-07 00:38:00,
2013-08-06 20:43:00,78.8,73.9,29.93,ENE,65,0.0,0.0,85,0.00,,,0.11,meteohub,2013-08-07 00:43:00,
2013-08-06 20:48:00,78.6,73.8,29.93,ENE,65,0.0,0.0,85,0.00,,,0.11,meteohub,2013-08-07 00:48:00,
2013-08-06 20:53:00,78.6,73.8,29.92,ENE,65,0.0,0.0,85,0.00,,,0.11,meteohub,2013-08-07 00:53:00,
2013-08-06 20:58:00,78.4,73.6,29.92,ENE,65,0.0,0.0,85,0.00,,,0.11,meteohub,2013-08-07 00:58:00,
2013-08-06 21:03:00,78.4,73.6,29.92,ENE,65,0.0,0.0,85,0.00,,,0.11,meteohub,2013-08-07 01:03:00,
2013-08-06 21:08:00,78.3,73.4,29.92,ENE,65,0.0,0.0,85,0.00,,,0.11,meteohub,2013-08-07 01:08:00,
2013-08-06 21:13:00,78.3,73.4,29.92,ENE,65,0.0,0.0,85,0.00,,,0.11,meteohub,2013-08-07 01:13:00,
2013-08-06 21:18:00,78.1,73.2,29.92,ENE,65,0.0,0.0,85,0.00,,,0.11,meteohub,2013-08-07 01:18:00,
2013-08-06 21:23:00,78.1,73.2,29.92,ENE,65,0.0,0.0,85,0.00,,,0.11,meteohub,2013-08-07 01:23:00,
2013-08-06 21:28:00,77.9,73.0,29.92,ENE,65,0.0,1.0,85,0.00,,,0.11,meteohub,2013-08-07 01:28:00,
2013-08-06 21:33:00,77.7,73.2,29.92,ENE,65,0.0,1.0,86,0.00,,,0.11,meteohub,2013-08-07 01:33:00,
2013-08-06 21:38:00,77.7,73.2,29.92,ENE,65,0.0,1.0,86,0.00,,,0.11,meteohub,2013-08-07 01:38:00,
2013-08-06 21:43:00,77.7,73.2,29.92,ENE,65,0.0,1.0,86,0.00,,,0.11,meteohub,2013-08-07 01:43:00,
2013-08-06 21:48:00,77.5,73.0,29.93,ENE,65,0.0,0.0,86,0.00,,,0.11,meteohub,2013-08-07 01:48:00,
2013-08-06 21:53:00,77.7,73.2,29.93,ENE,65,0.0,0.0,86,0.00,,,0.11,meteohub,2013-08-07 01:53:00,
2013-08-06 21:58:00,77.7,73.2,29.93,ENE,64,0.0,0.0,86,0.00,,,0.11,meteohub,2013-08-07 01:58:00,
2013-08-06 22:03:00,77.7,73.2,29.93,ENE,64,0.0,1.0,86,0.00,,,0.11,meteohub,2013-08-07 02:03:00,
2013-08-06 22:08:00,77.7,73.2,29.94,ENE,65,0.0,1.0,86,0.00,,,0.11,meteohub,2013-08-07 02:08:00,
2013-08-06 22:13:00,77.7,73.2,29.94,ENE,65,0.0,1.0,86,0.00,,,0.11,meteohub,2013-08-07 02:13:00,
2013-08-06 22:18:00,77.7,73.2,29.94,ENE,65,0.0,0.0,86,0.00,,,0.11,meteohub,2013-08-07 02:18:00,
2013-08-06 22:23:00,77.7,73.2,29.94,ENE,64,0.0,0.0,86,0.00,,,0.11,meteohub,2013-08-07 02:23:00,
2013-08-06 22:28:00,77.7,73.2,29.94,ENE,64,0.0,0.0,86,0.00,,,0.11,meteohub,2013-08-07 02:28:00,
2013-08-06 22:33:00,77.5,73.0,29.95,ENE,64,0.0,0.0,86,0.00,,,0.11,meteohub,2013-08-07 02:33:00,
2013-08-06 22:38:00,77.5,73.0,29.95,ENE,64,0.0,0.0,86,0.00,,,0.11,meteohub,2013-08-07 02:38:00,
2013-08-06 22:43:00,77.5,73.0,29.95,ENE,64,0.0,0.0,86,0.00,,,0.11,meteohub,2013-08-07 02:43:00,
2013-08-06 22:48:00,77.5,73.0,29.95,ENE,64,0.0,0.0,86,0.00,,,0.11,meteohub,2013-08-07 02:48:00,
2013-08-06 22:53:00,77.4,72.9,29.96,ENE,64,0.0,0.0,86,0.00,,,0.11,meteohub,2013-08-07 02:53:00,
2013-08-06 22:58:00,77.4,72.9,29.96,ENE,64,0.0,0.0,86,0.00,,,0.11,meteohub,2013-08-07 02:58:00,
2013-08-06 23:03:00,77.4,72.9,29.96,ENE,64,0.0,0.0,86,0.00,,,0.11,meteohub,2013-08-07 03:03:00,
2013-08-06 23:08:00,77.4,72.9,29.95,ENE,64,0.0,0.0,86,0.00,,,0.11,meteohub,2013-08-07 03:08:00,
2013-08-06 23:13:00,77.4,72.9,29.96,ENE,63,0.0,0.0,86,0.00,,,0.11,meteohub,2013-08-07 03:13:00,
2013-08-06 23:18:00,77.2,72.7,29.96,ENE,63,0.0,0.0,86,0.00,,,0.11,meteohub,2013-08-07 03:18:00,
2013-08-06 23:23:00,77.2,72.7,29.96,ENE,64,0.0,0.0,86,0.00,,,0.11,meteohub,2013-08-07 03:23:00,
2013-08-06 23:28:00,77.2,72.7,29.95,ENE,64,0.0,0.0,86,0.00,,,0.11,meteohub,2013-08-07 03:28:00,
2013-08-06 23:33:00,77.2,72.7,29.96,ENE,64,0.0,1.0,86,0.00,,,0.11,meteohub,2013-08-07 03:33:00,
2013-08-06 23:38:00,77.0,72.5,29.95,ENE,59,1.0,1.0,86,0.00,,,0.11,meteohub,2013-08-07 03:38:00,
2013-08-06 23:43:00,77.0,72.5,29.96,ENE,61,0.0,1.0,86,0.00,,,0.11,meteohub,2013-08-07 03:43:00,
2013-08-06 23:48:00,76.8,72.3,29.96,ENE,60,0.0,1.0,86,0.00,,,0.11,meteohub,2013-08-07 03:48:00,
2013-08-06 23:53:00,76.8,72.3,29.96,ENE,60,0.0,1.0,86,0.00,,,0.11,meteohub,2013-08-07 03:53:00,
2013-08-06 23:58:00,76.8,72.3,29.96,ENE,61,0.0,0.0,86,0.00,,,0.11,meteohub,2013-08-07 03:58:00,